Time;durP1;ratioP1;P1;durP2;ratioP2;P2;SDS_P1;SDS_P2;PMS_P1;PMS_P2;Temp;Humidity;BMP_temperature;BMP_pressure;BME280_temperature;BME280_humidity;BME280_pressure;Samples;Min_cycle;Max_cycle;Signal;HPM_P1;HPM_P2
2022/05/27 00:00:56;;;;;;;19.60;6.25;;;13.10;99.90;;;;;;7399409;19;20018;-73
2022/05/27 00:03:25;;;;;;;20.75;6.15;;;13.10;99.90;;;;;;7396215;19;20025;-73
2022/05/27 00:05:54;;;;;;;19.15;5.93;;;13.20;99.90;;;;;;7398318;19;20094;-73
2022/05/27 00:08:25;;;;;;;22.73;6.40;;;13.30;99.90;;;;;;7395476;19;20023;-73
2022/05/27 00:10:56;;;;;;;22.42;6.10;;;13.30;99.90;;;;;;7398936;19;20073;-73
2022/05/27 00:13:28;;;;;;;18.80;6.45;;;13.10;99.90;;;;;;7397110;19;20022;-73
2022/05/27 00:15:57;;;;;;;22.45;6.30;;;13.10;99.90;;;;;;7398902;19;20368;-73
2022/05/27 00:18:26;;;;;;;21.45;5.43;;;12.90;99.90;;;;;;7398706;19;20413;-73
2022/05/27 00:20:55;;;;;;;21.50;5.65;;;;;;;;;;7392287;19;20035;-73
2022/05/27 00:23:24;;;;;;;14.57;5.10;;;13.00;99.90;;;;;;7396689;19;20086;-73
2022/05/27 00:25:53;;;;;;;19.98;4.72;;;;;;;;;;7398820;19;20090;-73
2022/05/27 00:28:22;;;;;;;17.85;4.60;;;13.20;99.90;;;;;;7398183;19;20015;-73
2022/05/27 00:30:54;;;;;;;17.52;4.53;;;13.00;99.90;;;;;;7393885;19;20085;-73
2022/05/27 00:33:23;;;;;;;19.52;4.75;;;13.00;99.90;;;;;;7397685;19;20025;-74
2022/05/27 00:35:52;;;;;;;18.70;4.43;;;13.00;99.90;;;;;;7397592;19;20015;-73
2022/05/27 00:38:21;;;;;;;18.45;4.72;;;12.90;99.90;;;;;;7399396;19;20074;-73
2022/05/27 00:40:53;;;;;;;19.60;4.50;;;12.90;99.90;;;;;;7395855;19;20022;-73
2022/05/27 00:43:22;;;;;;;15.57;4.25;;;12.70;99.90;;;;;;7394705;19;20414;-73
2022/05/27 00:46:00;;;;;;;17.50;4.50;;;13.00;99.90;;;;;;7397554;19;20124;-73
2022/05/27 00:48:30;;;;;;;13.23;4.07;;;12.80;99.90;;;;;;7395407;19;20011;-73
2022/05/27 00:51:00;;;;;;;19.00;4.63;;;12.90;99.90;;;;;;7396407;19;20014;-72
2022/05/27 00:53:36;;;;;;;19.02;4.25;;;12.70;99.90;;;;;;7390410;19;20479;-73
2022/05/27 00:56:07;;;;;;;;;;;12.70;99.90;;;;;;7394696;19;20038;-73
2022/05/27 00:58:41;;;;;;;14.95;4.07;;;12.80;99.90;;;;;;7395995;19;20263;-74
2022/05/27 01:01:13;;;;;;;19.65;4.03;;;12.80;99.90;;;;;;7396889;19;20366;-73
2022/05/27 01:03:44;;;;;;;18.23;4.28;;;12.80;99.90;;;;;;7393143;19;20027;-73
2022/05/27 01:06:13;;;;;;;17.10;4.18;;;12.80;99.90;;;;;;7397335;19;20028;-73
2022/05/27 01:08:45;;;;;;;20.55;4.10;;;12.80;99.90;;;;;;7393449;19;20534;-73
2022/05/27 01:11:25;;;;;;;19.55;3.72;;;12.70;99.90;;;;;;7396393;19;20014;-73
2022/05/27 01:14:14;;;;;;;18.20;4.28;;;12.50;99.90;;;;;;7395196;19;20042;-73
2022/05/27 01:16:57;;;;;;;14.10;3.20;;;12.60;99.90;;;;;;7397921;19;20023;-73
2022/05/27 01:23:23;;;;;;;21.10;3.72;;;12.50;99.90;;;;;;7392992;19;20125;-73
2022/05/27 01:26:39;;;;;;;16.10;3.75;;;12.40;99.90;;;;;;7395926;19;20021;-74
2022/05/27 01:29:34;;;;;;;17.27;4.10;;;12.40;99.90;;;;;;7388779;19;20521;-73
2022/05/27 01:32:12;;;;;;;16.13;3.63;;;12.40;99.90;;;;;;7393533;19;20018;-73
2022/05/27 01:34:53;;;;;;;15.90;3.35;;;12.40;99.90;;;;;;7395893;19;20078;-73
2022/05/27 01:37:27;;;;;;;18.05;3.72;;;12.40;99.90;;;;;;7394159;19;20026;-73
2022/05/27 01:40:07;;;;;;;15.23;3.45;;;12.30;99.90;;;;;;7395043;19;20123;-73
2022/05/27 01:42:45;;;;;;;17.30;4.70;;;12.40;99.90;;;;;;7385089;19;20057;-73
2022/05/27 01:45:20;;;;;;;15.18;3.70;;;12.30;99.90;;;;;;7395987;19;20022;-73
2022/05/27 01:47:56;;;;;;;12.00;3.72;;;12.40;99.90;;;;;;7391870;19;20015;-73
2022/05/27 01:50:34;;;;;;;16.80;3.55;;;12.20;99.90;;;;;;7395162;19;20396;-73
2022/05/27 01:53:09;;;;;;;10.65;2.97;;;12.20;99.90;;;;;;7395309;19;20010;-73
2022/05/27 01:55:42;;;;;;;14.30;3.17;;;12.20;99.90;;;;;;7395591;19;20018;-73
2022/05/27 01:58:21;;;;;;;15.40;3.10;;;12.20;99.90;;;;;;7393208;19;20038;-73
2022/05/27 02:00:52;;;;;;;11.75;3.10;;;12.20;99.90;;;;;;7392430;19;20031;-73
2022/05/27 02:03:28;;;;;;;11.93;2.92;;;12.10;99.90;;;;;;7392197;19;20346;-73
2022/05/27 02:06:02;;;;;;;11.00;2.90;;;12.20;99.90;;;;;;7395430;19;20018;-73
2022/05/27 02:08:36;;;;;;;12.43;3.22;;;11.90;99.90;;;;;;7394453;19;20032;-72
2022/05/27 02:11:09;;;;;;;12.30;3.10;;;12.20;99.90;;;;;;7395209;19;20042;-73
2022/05/27 02:13:42;;;;;;;18.48;3.60;;;12.10;99.90;;;;;;7391390;19;20015;-73
2022/05/27 02:16:15;;;;;;;12.85;3.13;;;12.10;99.90;;;;;;7395658;19;20018;-73
2022/05/27 02:18:51;;;;;;;16.42;3.53;;;12.00;99.90;;;;;;7393231;19;20023;-73
2022/05/27 02:21:24;;;;;;;11.00;2.92;;;12.00;99.90;;;;;;7393844;19;20018;-73
2022/05/27 02:23:57;;;;;;;15.80;3.20;;;12.00;99.90;;;;;;7393247;19;20010;-73
2022/05/27 02:26:31;;;;;;;10.38;2.92;;;12.20;99.90;;;;;;7392379;19;20025;-73
2022/05/27 02:29:03;;;;;;;14.25;3.78;;;12.00;99.90;;;;;;7393355;19;20021;-73
2022/05/27 02:31:35;;;;;;;13.55;3.00;;;11.90;99.90;;;;;;7392075;19;20015;-73
2022/05/27 02:36:59;;;;;;;13.18;3.92;;;11.90;99.90;;;;;;7393941;19;20019;-73
2022/05/27 02:39:28;;;;;;;16.92;3.17;;;11.80;99.90;;;;;;7393433;19;20007;-73
2022/05/27 02:42:04;;;;;;;11.38;2.88;;;11.70;99.90;;;;;;7393494;19;20529;-73
2022/05/27 02:44:42;;;;;;;15.45;3.33;;;11.80;99.90;;;;;;7393579;19;20026;-73
2022/05/27 02:47:19;;;;;;;15.77;3.92;;;11.80;99.90;;;;;;7392002;19;20483;-73
2022/05/27 02:50:01;;;;;;;14.80;3.40;;;11.80;99.90;;;;;;7394253;19;20034;-73
2022/05/27 02:52:38;;;;;;;14.50;2.78;;;11.80;99.90;;;;;;7393076;19;20473;-73
2022/05/27 02:55:16;;;;;;;9.80;2.72;;;11.80;99.90;;;;;;7402758;19;20610;-73
2022/05/27 02:57:47;;;;;;;14.00;2.78;;;11.90;99.90;;;;;;7400541;19;20014;-73
2022/05/27 03:00:20;;;;;;;14.70;2.95;;;11.90;99.90;;;;;;7396882;19;20019;-73
2022/05/27 03:02:50;;;;;;;11.88;2.95;;;11.60;99.90;;;;;;7400754;19;20029;-74
2022/05/27 03:05:25;;;;;;;13.13;2.60;;;11.60;99.90;;;;;;7397385;19;20011;-74
2022/05/27 03:08:08;;;;;;;7.63;2.10;;;11.50;99.90;;;;;;7400732;19;20028;-73
2022/05/27 03:10:51;;;;;;;10.63;2.50;;;11.50;99.90;;;;;;7396734;19;20034;-73
2022/05/27 03:13:46;;;;;;;9.80;2.53;;;11.50;99.90;;;;;;7401390;19;20358;-73
2022/05/27 03:16:26;;;;;;;11.13;2.50;;;11.30;99.90;;;;;;7398957;19;20014;-73
2022/05/27 03:19:12;;;;;;;7.38;2.17;;;11.10;99.90;;;;;;7385673;19;20087;-73
2022/05/27 03:21:56;;;;;;;;;;;11.40;99.90;;;;;;7398005;19;20022;-73
2022/05/27 03:24:33;;;;;;;10.80;2.50;;;11.20;99.90;;;;;;7396843;19;20296;-73
2022/05/27 03:27:24;;;;;;;11.27;2.70;;;9.50;99.90;;;;;;7400682;19;20014;-73
2022/05/27 03:30:00;;;;;;;8.38;2.97;;;11.20;99.90;;;;;;7401622;19;20014;-72
2022/05/27 03:32:37;;;;;;;9.65;2.70;;;11.00;99.90;;;;;;7397730;19;20094;-73
2022/05/27 03:35:11;;;;;;;9.93;2.22;;;11.10;99.90;;;;;;7400236;19;20025;-73
2022/05/27 03:37:51;;;;;;;11.15;2.20;;;11.20;99.90;;;;;;7399528;19;20014;-73
2022/05/27 03:40:24;;;;;;;8.60;2.50;;;11.20;99.90;;;;;;7398552;19;20085;-73
2022/05/27 03:42:57;;;;;;;15.38;2.53;;;11.20;99.90;;;;;;7398093;19;20014;-73
2022/05/27 03:45:27;;;;;;;11.40;2.60;;;11.20;99.90;;;;;;7395051;19;20077;-73
2022/05/27 03:47:56;;;;;;;11.10;2.72;;;11.30;99.90;;;;;;7398765;19;20018;-73
2022/05/27 03:50:26;;;;;;;8.98;2.55;;;11.10;99.90;;;;;;7398320;19;20030;-73
2022/05/27 03:52:58;;;;;;;9.00;2.42;;;11.00;99.90;;;;;;7399420;19;20025;-73
2022/05/27 03:55:28;;;;;;;8.35;2.28;;;11.20;99.90;;;;;;7399438;19;20354;-72
2022/05/27 03:57:57;;;;;;;11.43;2.85;;;11.10;99.90;;;;;;7398573;19;20026;-73
2022/05/27 04:00:26;;;;;;;8.75;2.58;;;11.20;99.90;;;;;;7395873;19;20427;-73
2022/05/27 04:02:55;;;;;;;8.57;2.30;;;11.20;99.90;;;;;;7397813;19;20380;-72
2022/05/27 04:05:25;;;;;;;8.88;2.42;;;;;;;;;;7395114;19;20007;-73
2022/05/27 04:07:53;;;;;;;9.43;2.25;;;11.60;99.90;;;;;;7398502;19;20027;-72
2022/05/27 04:10:25;;;;;;;14.95;2.38;;;11.20;99.90;;;;;;7398709;19;20109;-73
2022/05/27 04:12:55;;;;;;;16.77;3.40;;;;;;;;;;7397843;19;20483;-73
2022/05/27 04:15:25;;;;;;;12.43;2.78;;;11.30;99.90;;;;;;7397853;19;20010;-72
2022/05/27 04:17:53;;;;;;;10.18;2.60;;;11.20;99.90;;;;;;7399739;19;20014;-73
2022/05/27 04:20:23;;;;;;;10.25;2.60;;;11.20;99.90;;;;;;7398495;19;20018;-72
2022/05/27 04:22:55;;;;;;;16.27;2.67;;;11.40;99.90;;;;;;7398913;19;20018;-73
2022/05/27 04:25:28;;;;;;;10.80;2.80;;;11.10;99.90;;;;;;7397954;19;20368;-72
2022/05/27 04:27:57;;;;;;;12.68;2.25;;;11.50;99.90;;;;;;7397881;19;20015;-72
2022/05/27 04:30:26;;;;;;;11.43;2.67;;;11.40;99.90;;;;;;7394914;19;20020;-73
2022/05/27 04:32:55;;;;;;;9.55;2.42;;;11.20;99.90;;;;;;7398748;19;20025;-73
2022/05/27 04:35:24;;;;;;;10.65;3.00;;;;;;;;;;7396608;19;20082;-73
2022/05/27 04:37:53;;;;;;;11.05;3.05;;;11.30;99.90;;;;;;7395759;19;20033;-73
2022/05/27 04:40:22;;;;;;;8.50;2.50;;;11.00;99.90;;;;;;7398023;19;20007;-73
2022/05/27 04:42:59;;;;;;;14.23;2.80;;;11.30;99.90;;;;;;7396040;19;20031;-73
2022/05/27 04:45:28;;;;;;;6.75;2.30;;;11.30;99.90;;;;;;7398075;19;20036;-73
2022/05/27 04:47:58;;;;;;;10.93;2.97;;;11.40;99.90;;;;;;7396661;19;20019;-75
2022/05/27 04:50:27;;;;;;;13.05;2.58;;;11.40;99.90;;;;;;7391190;19;20022;-73
2022/05/27 04:52:56;;;;;;;10.48;2.33;;;11.60;99.90;;;;;;7395981;19;20018;-73
2022/05/27 04:55:24;;;;;;;9.65;2.45;;;11.40;99.90;;;;;;7396274;19;20014;-73
2022/05/27 04:57:56;;;;;;;11.50;2.67;;;11.40;99.90;;;;;;7396607;19;20018;-74
2022/05/27 05:00:31;;;;;;;9.35;2.67;;;11.50;99.90;;;;;;7394936;19;20022;-74
2022/05/27 05:03:00;;;;;;;13.35;3.58;;;11.50;99.90;;;;;;7396154;19;20019;-73
2022/05/27 05:05:31;;;;;;;11.10;2.47;;;11.60;99.90;;;;;;7394058;19;20015;-72
2022/05/27 05:08:05;;;;;;;15.18;2.97;;;11.30;99.90;;;;;;7397271;19;20011;-73
2022/05/27 05:10:34;;;;;;;11.98;2.47;;;11.50;99.90;;;;;;7392214;19;20010;-73
2022/05/27 05:13:03;;;;;;;12.77;2.80;;;11.70;99.90;;;;;;7396444;19;20428;-73
2022/05/27 05:15:40;;;;;;;13.75;2.75;;;11.50;99.90;;;;;;7396705;19;20133;-73
2022/05/27 05:18:09;;;;;;;11.75;2.75;;;11.60;99.90;;;;;;7395765;19;20006;-73
2022/05/27 05:20:39;;;;;;;15.70;2.85;;;;;;;;;;7396241;19;20018;-73
2022/05/27 05:23:08;;;;;;;11.15;3.13;;;;;;;;;;7394407;19;20026;-72
2022/05/27 05:25:37;;;;;;;12.35;2.67;;;;;;;;;;7397097;19;20341;-72
2022/05/27 05:28:06;;;;;;;10.02;2.78;;;11.50;99.90;;;;;;7396043;19;20014;-72
2022/05/27 05:30:35;;;;;;;8.18;2.30;;;11.50;99.90;;;;;;7394277;19;20082;-73
2022/05/27 05:33:07;;;;;;;17.00;3.10;;;11.60;99.90;;;;;;7396246;19;20547;-73
2022/05/27 05:35:37;;;;;;;7.28;2.47;;;11.50;99.90;;;;;;7396453;19;20006;-73
2022/05/27 05:38:08;;;;;;;12.60;2.55;;;11.40;99.90;;;;;;7395778;19;20011;-72
2022/05/27 05:40:37;;;;;;;11.85;3.08;;;11.40;99.90;;;;;;7396023;19;20019;-73
2022/05/27 05:43:06;;;;;;;14.75;2.75;;;;;;;;;;7395066;19;20022;-73
2022/05/27 05:45:35;;;;;;;12.40;3.22;;;11.40;99.90;;;;;;7393575;19;20046;-73
2022/05/27 05:48:07;;;;;;;13.77;2.50;;;11.60;99.90;;;;;;7392515;19;20019;-73
2022/05/27 05:50:36;;;;;;;16.08;2.92;;;11.40;99.90;;;;;;7394566;19;20487;-73
2022/05/27 05:53:05;;;;;;;9.60;2.58;;;11.50;99.90;;;;;;7395426;19;20042;-73
2022/05/27 05:55:35;;;;;;;16.52;2.92;;;11.60;99.90;;;;;;7395524;19;20503;-73
2022/05/27 05:58:05;;;;;;;10.93;2.75;;;11.70;99.90;;;;;;7393948;19;20510;-73
2022/05/27 06:00:34;;;;;;;13.63;2.40;;;;;;;;;;7392199;19;20367;-73
2022/05/27 06:03:03;;;;;;;14.43;2.95;;;11.60;99.90;;;;;;7394931;19;20538;-73
2022/05/27 06:05:37;;;;;;;14.95;2.70;;;10.80;99.90;;;;;;7393542;19;20046;-73
2022/05/27 06:08:07;;;;;;;11.73;2.50;;;11.80;99.90;;;;;;7393212;19;20400;-73
2022/05/27 06:10:37;;;;;;;12.65;2.70;;;;;;;;;;7391591;19;20017;-73
2022/05/27 06:13:06;;;;;;;10.05;2.83;;;11.60;99.90;;;;;;7394207;19;20479;-73
2022/05/27 06:15:36;;;;;;;12.25;3.08;;;11.50;99.90;;;;;;7395321;19;20011;-73
2022/05/27 06:18:06;;;;;;;9.18;2.47;;;11.60;99.90;;;;;;7393987;19;20010;-73
2022/05/27 06:20:39;;;;;;;15.38;2.55;;;11.60;99.90;;;;;;7393147;19;20372;-72
2022/05/27 06:23:10;;;;;;;16.00;2.97;;;11.60;99.90;;;;;;7392357;19;20011;-73
2022/05/27 06:25:40;;;;;;;10.93;2.63;;;11.70;99.90;;;;;;7390854;19;20022;-74
2022/05/27 06:36:17;;;;;;;17.48;3.47;;;11.80;99.90;;;;;;7391415;19;20019;-76
2022/05/27 06:38:46;;;;;;;11.30;2.90;;;11.90;99.90;;;;;;7393054;19;20015;-73
2022/05/27 06:41:15;;;;;;;10.20;2.72;;;11.80;99.90;;;;;;7388838;19;20026;-72
2022/05/27 06:43:45;;;;;;;11.10;2.47;;;11.80;99.90;;;;;;7391156;19;20010;-74
2022/05/27 06:46:15;;;;;;;11.40;2.63;;;11.80;99.90;;;;;;7388107;19;20019;-74
2022/05/27 06:48:44;;;;;;;9.68;2.83;;;11.90;99.90;;;;;;7392150;19;20031;-74
2022/05/27 06:51:18;;;;;;;10.88;2.80;;;11.80;99.90;;;;;;7392284;19;20475;-74
2022/05/27 06:53:48;;;;;;;11.52;2.85;;;11.90;99.90;;;;;;7392375;19;20081;-74
2022/05/27 06:56:17;;;;;;;11.70;3.17;;;11.90;99.90;;;;;;7390743;19;20043;-74
2022/05/27 06:58:46;;;;;;;9.88;2.97;;;11.90;99.90;;;;;;7388161;19;20041;-74
2022/05/27 07:01:15;;;;;;;18.95;2.80;;;11.90;99.90;;;;;;7391781;19;20493;-74
2022/05/27 07:03:44;;;;;;;12.05;2.78;;;;;;;;;;7390851;19;20034;-74
2022/05/27 07:06:16;;;;;;;16.67;3.28;;;12.00;99.90;;;;;;7389932;19;20344;-75
2022/05/27 07:08:45;;;;;;;13.13;3.10;;;12.00;99.90;;;;;;7388861;19;20022;-75
2022/05/27 07:11:14;;;;;;;10.93;3.03;;;12.00;99.90;;;;;;7385289;19;20427;-75
2022/05/27 07:13:43;;;;;;;6.07;2.35;;;12.10;99.90;;;;;;7387897;19;20030;-75
2022/05/27 07:16:13;;;;;;;12.38;2.67;;;12.00;99.90;;;;;;7391163;19;20182;-75
2022/05/27 07:18:41;;;;;;;12.75;2.80;;;12.10;99.90;;;;;;7391393;19;20017;-75
2022/05/27 07:21:10;;;;;;;14.13;2.80;;;12.10;99.90;;;;;;7390646;19;20037;-75
2022/05/27 07:23:44;;;;;;;12.15;2.55;;;12.10;99.90;;;;;;7388563;19;20041;-74
2022/05/27 07:26:13;;;;;;;8.98;2.45;;;12.00;99.90;;;;;;7391769;19;20011;-74
2022/05/27 07:28:42;;;;;;;13.00;2.40;;;12.00;99.90;;;;;;7389386;19;20021;-73
2022/05/27 07:31:11;;;;;;;7.22;2.30;;;12.00;99.90;;;;;;7390499;19;20010;-75
2022/05/27 07:33:40;;;;;;;10.07;2.53;;;12.30;99.90;;;;;;7391432;19;20049;-74
2022/05/27 07:36:09;;;;;;;9.57;3.03;;;12.10;99.90;;;;;;7389913;19;20011;-75
2022/05/27 07:38:38;;;;;;;13.00;2.70;;;12.00;99.90;;;;;;7392155;19;20014;-74
2022/05/27 07:41:11;;;;;;;10.48;2.90;;;12.00;99.90;;;;;;7394367;19;20074;-74
2022/05/27 07:43:42;;;;;;;14.73;2.95;;;12.00;99.90;;;;;;7397970;19;20017;-74
2022/05/27 07:46:11;;;;;;;10.43;2.50;;;11.90;99.90;;;;;;7394382;19;20094;-74
2022/05/27 07:48:40;;;;;;;9.57;2.20;;;12.00;99.90;;;;;;7398860;19;20025;-74
2022/05/27 07:51:10;;;;;;;12.73;3.03;;;;;;;;;;7399033;19;20019;-74
2022/05/27 07:53:39;;;;;;;10.90;2.50;;;12.20;99.90;;;;;;7398143;19;20015;-74
2022/05/27 07:56:12;;;;;;;9.80;2.38;;;12.30;99.90;;;;;;7397751;19;20429;-74
2022/05/27 07:58:43;;;;;;;13.23;2.95;;;12.20;99.90;;;;;;7398349;19;20015;-73
2022/05/27 08:01:12;;;;;;;5.85;2.38;;;12.20;99.90;;;;;;7395983;19;20015;-73
2022/05/27 08:03:42;;;;;;;9.93;2.72;;;;;;;;;;7397267;19;20113;-74
2022/05/27 08:06:12;;;;;;;13.15;3.10;;;12.30;99.90;;;;;;7395677;19;20086;-73
2022/05/27 08:08:41;;;;;;;14.77;3.15;;;;;;;;;;7395746;19;20131;-74
2022/05/27 08:11:12;;;;;;;15.15;2.95;;;12.30;99.90;;;;;;7399117;19;20042;-73
2022/05/27 08:13:42;;;;;;;12.90;2.60;;;;;;;;;;7397964;19;20019;-73
2022/05/27 08:16:11;;;;;;;16.50;2.65;;;12.60;99.90;;;;;;7405738;19;20011;-73
2022/05/27 08:18:41;;;;;;;13.77;2.83;;;12.60;99.90;;;;;;7405374;19;20031;-73
2022/05/27 08:21:10;;;;;;;12.27;2.53;;;12.50;99.90;;;;;;7398626;19;20023;-73
2022/05/27 08:23:39;;;;;;;11.93;2.90;;;12.90;99.90;;;;;;7398079;19;20018;-74
2022/05/27 08:26:08;;;;;;;11.45;2.70;;;;;;;;;;7395695;19;20010;-74
2022/05/27 08:28:39;;;;;;;9.88;3.15;;;12.60;99.90;;;;;;7395414;19;20039;-71
2022/05/27 08:31:08;;;;;;;13.50;2.95;;;;;;;;;;7246361;19;20369;-73
2022/05/27 08:39:06;;;;;;;10.82;2.80;;;12.30;99.90;;;;;;7390271;19;20094;-73
2022/05/27 08:41:54;;;;;;;11.30;2.78;;;12.40;99.90;;;;;;7395990;19;20482;-74
2022/05/27 08:44:36;;;;;;;13.10;3.65;;;12.50;99.90;;;;;;7396371;19;20046;-74
2022/05/27 08:47:15;;;;;;;10.20;2.47;;;12.70;99.90;;;;;;7392101;19;20523;-78
2022/05/27 08:49:50;;;;;;;11.20;2.50;;;12.80;99.90;;;;;;7392498;19;20421;-74
2022/05/27 08:52:24;;;;;;;10.88;2.30;;;13.00;99.90;;;;;;7396243;19;20018;-75
2022/05/27 08:54:57;;;;;;;15.02;2.50;;;12.80;99.90;;;;;;7396369;19;20336;-74
2022/05/27 09:00:17;;;;;;;8.55;2.25;;;13.00;99.90;;;;;;7395119;19;20018;-74
2022/05/27 09:02:51;;;;;;;11.20;2.35;;;13.20;99.90;;;;;;7396604;19;20015;-74
2022/05/27 09:05:24;;;;;;;12.95;3.10;;;13.30;99.90;;;;;;7393503;19;20029;-75
2022/05/27 09:07:59;;;;;;;12.40;2.70;;;13.20;99.90;;;;;;7394902;19;20023;-76
2022/05/27 09:11:01;;;;;;;14.43;2.72;;;13.10;99.90;;;;;;7393117;19;20495;-76
2022/05/27 09:13:39;;;;;;;10.90;2.28;;;13.20;99.90;;;;;;7395908;19;20017;-75
2022/05/27 09:16:18;;;;;;;8.65;2.60;;;13.00;99.90;;;;;;7396193;19;20014;-75
2022/05/27 09:18:58;;;;;;;8.65;2.20;;;13.00;99.90;;;;;;7396748;19;20021;-75
2022/05/27 09:21:35;;;;;;;8.98;2.38;;;12.80;99.90;;;;;;7397371;19;20022;-75
2022/05/27 09:24:30;;;;;;;8.57;2.33;;;13.00;99.90;;;;;;7395617;19;20033;-75
2022/05/27 09:27:05;;;;;;;9.63;2.15;;;13.20;99.90;;;;;;7395763;19;20068;-75
2022/05/27 09:29:52;;;;;;;8.18;2.20;;;13.00;99.90;;;;;;7400747;19;20022;-76
2022/05/27 09:32:36;;;;;;;12.85;2.55;;;12.90;99.90;;;;;;7398571;19;20015;-75
2022/05/27 09:35:09;;;;;;;12.90;3.38;;;12.90;99.90;;;;;;7398111;19;20014;-75
2022/05/27 09:37:44;;;;;;;12.85;2.85;;;12.80;99.90;;;;;;7395544;19;20014;-75
2022/05/27 09:40:18;;;;;;;17.88;3.85;;;12.70;99.90;;;;;;7395012;19;20092;-75
2022/05/27 09:42:52;;;;;;;19.55;4.00;;;12.90;99.90;;;;;;7392906;19;20018;-76
2022/05/27 09:45:21;;;;;;;9.95;2.67;;;13.00;99.90;;;;;;7394431;19;20050;-75
2022/05/27 09:48:00;;;;;;;18.95;4.15;;;13.30;99.90;;;;;;7393712;19;20023;-74
2022/05/27 09:50:31;;;;;;;12.88;3.10;;;13.30;99.90;;;;;;7395751;19;20465;-74
2022/05/27 09:53:01;;;;;;;11.10;2.80;;;13.40;99.90;;;;;;7389161;19;20467;-74
2022/05/27 09:55:42;;;;;;;15.35;3.58;;;13.90;99.90;;;;;;7395393;19;20014;-74
2022/05/27 09:58:11;;;;;;;12.48;2.88;;;13.50;99.90;;;;;;7393792;19;20015;-74
2022/05/27 10:00:45;;;;;;;10.88;2.58;;;13.70;99.90;;;;;;7393919;19;20022;-74
2022/05/27 10:03:29;;;;;;;13.97;3.30;;;13.90;99.90;;;;;;7389359;19;20089;-74
2022/05/27 10:06:01;;;;;;;12.85;2.70;;;13.80;99.60;;;;;;7390172;19;20486;-74
2022/05/27 10:08:35;;;;;;;13.23;2.70;;;13.70;99.80;;;;;;7387620;19;20403;-74
2022/05/27 10:11:23;;;;;;;10.82;2.33;;;13.70;99.90;;;;;;7393524;19;20014;-75
2022/05/27 10:14:10;;;;;;;11.15;2.75;;;13.70;99.90;;;;;;7392075;19;20121;-74
2022/05/27 10:16:41;;;;;;;13.32;2.95;;;13.60;99.60;;;;;;7390623;19;20038;-74
2022/05/27 10:19:15;;;;;;;10.68;2.45;;;13.60;99.40;;;;;;7391277;19;20015;-75
2022/05/27 10:21:53;;;;;;;11.85;2.45;;;13.70;98.20;;;;;;7391358;19;20018;-75
2022/05/27 10:24:27;;;;;;;11.90;2.80;;;13.60;99.50;;;;;;7390687;19;20463;-75
2022/05/27 10:27:12;;;;;;;8.82;2.30;;;13.50;97.90;;;;;;7391016;19;20025;-75
2022/05/27 10:29:59;;;;;;;12.27;2.47;;;13.50;99.90;;;;;;7388482;19;20353;-76
2022/05/27 10:32:31;;;;;;;13.15;2.97;;;13.40;99.90;;;;;;7391371;19;20021;-74
2022/05/27 10:35:05;;;;;;;10.48;2.30;;;13.40;99.90;;;;;;7390873;19;20046;-75
2022/05/27 10:37:52;;;;;;;13.50;2.47;;;13.40;99.90;;;;;;7393124;19;20022;-75
2022/05/27 10:40:32;;;;;;;13.90;3.78;;;13.60;99.90;;;;;;7384907;19;20355;-75
2022/05/27 10:43:13;;;;;;;12.00;2.30;;;13.80;99.90;;;;;;7391309;19;20049;-73
2022/05/27 10:45:47;;;;;;;10.32;2.95;;;13.70;99.20;;;;;;7387980;19;20018;-74
2022/05/27 10:48:40;;;;;;;14.23;3.00;;;13.60;99.90;;;;;;7391981;19;20019;-75
2022/05/27 10:51:24;;;;;;;15.48;2.70;;;13.40;99.90;;;;;;7389868;19;20034;-75
2022/05/27 10:54:10;;;;;;;11.27;2.55;;;13.70;99.90;;;;;;7390970;19;20026;-75
2022/05/27 11:02:03;;;;;;;13.23;2.80;;;13.70;99.90;;;;;;7391237;19;20015;-76
2022/05/27 11:02:39;;;;;;;10.88;2.85;;;13.70;99.90;;;;;;7391981;19;20015;-75
2022/05/27 11:05:27;;;;;;;14.38;3.10;;;13.60;99.90;;;;;;7389678;19;20018;-75
2022/05/27 11:08:14;;;;;;;12.73;2.78;;;13.40;99.90;;;;;;7393567;19;20014;-75
2022/05/27 11:10:51;;;;;;;17.67;3.45;;;13.50;99.90;;;;;;7391565;19;20022;-75
2022/05/27 11:16:44;;;;;;;10.60;2.70;;;14.10;99.90;;;;;;7399636;19;20022;-75
2022/05/27 11:19:42;;;;;;;13.82;2.70;;;14.30;99.90;;;;;;7398786;19;20014;-75
2022/05/27 11:22:29;;;;;;;11.95;2.63;;;14.30;99.90;;;;;;7400588;19;20017;-75
2022/05/27 11:25:23;;;;;;;11.07;2.47;;;14.50;99.90;;;;;;7399329;19;20014;-75
2022/05/27 11:28:24;;;;;;;11.35;2.35;;;14.80;99.80;;;;;;7397297;19;20011;-75
2022/05/27 11:31:06;;;;;;;10.98;2.88;;;14.20;99.70;;;;;;7399655;19;20055;-75
2022/05/27 11:33:44;;;;;;;15.65;3.35;;;14.00;99.90;;;;;;7406153;19;20014;-75
2022/05/27 11:36:30;;;;;;;11.77;3.22;;;13.70;99.90;;;;;;7396199;19;20018;-75
2022/05/27 11:39:12;;;;;;;11.60;3.25;;;13.80;99.90;;;;;;7399381;19;20019;-76
2022/05/27 11:41:54;;;;;;;17.50;3.17;;;13.90;99.90;;;;;;7398654;19;20376;-76
2022/05/27 11:44:33;;;;;;;11.65;2.88;;;13.70;99.90;;;;;;7400100;19;20014;-75
2022/05/27 11:47:28;;;;;;;11.85;2.70;;;13.70;99.90;;;;;;7394706;19;20390;-76
2022/05/27 11:50:17;;;;;;;13.13;3.13;;;14.00;99.90;;;;;;7396886;19;20015;-74
2022/05/27 11:53:01;;;;;;;15.45;2.92;;;14.10;99.90;;;;;;7373438;19;20022;-75
2022/05/27 11:55:52;;;;;;;15.88;2.90;;;14.00;99.90;;;;;;7380450;19;20114;-81
2022/05/27 11:58:28;;;;;;;11.48;3.15;;;13.90;99.90;;;;;;7377636;19;20034;-77
2022/05/27 12:01:06;;;;;;;12.50;3.10;;;13.80;99.90;;;;;;7377108;19;20010;-77
2022/05/27 12:03:44;;;;;;;11.80;2.47;;;14.30;99.90;;;;;;7379293;19;20370;-76
2022/05/27 12:06:16;;;;;;;13.60;3.15;;;14.10;99.90;;;;;;7377732;19;20519;-77
2022/05/27 12:08:51;;;;;;;12.63;2.40;;;13.90;99.90;;;;;;7378790;19;20021;-76
2022/05/27 12:11:24;;;;;;;15.90;3.13;;;13.90;99.00;;;;;;7373991;19;20389;-75
2022/05/27 12:14:02;;;;;;;8.55;2.30;;;13.90;99.90;;;;;;7384222;19;20036;-74
2022/05/27 12:16:37;;;;;;;8.98;2.63;;;14.00;99.90;;;;;;7393682;19;20018;-74
2022/05/27 12:19:10;;;;;;;11.63;2.78;;;13.90;99.90;;;;;;7397103;19;20190;-73
2022/05/27 12:21:43;;;;;;;12.35;2.75;;;13.80;99.90;;;;;;7394738;19;20615;-74
2022/05/27 12:24:19;;;;;;;16.40;3.72;;;13.60;99.90;;;;;;7394399;19;20017;-74
2022/05/27 12:26:50;;;;;;;15.20;3.28;;;13.60;99.90;;;;;;7389249;19;20014;-75
2022/05/27 12:29:31;;;;;;;12.30;2.95;;;13.60;99.80;;;;;;7397527;19;20018;-74
2022/05/27 12:32:00;;;;;;;14.30;2.60;;;13.70;99.90;;;;;;7394589;19;20029;-74
2022/05/27 12:34:44;;;;;;;14.20;2.83;;;13.70;99.90;;;;;;7393412;19;20042;-74
2022/05/27 12:37:24;;;;;;;12.52;2.30;;;14.40;99.90;;;;;;7394443;19;20015;-74
2022/05/27 12:39:57;;;;;;;9.23;2.33;;;14.10;99.90;;;;;;7396220;19;20357;-74
2022/05/27 12:42:39;;;;;;;11.65;2.53;;;14.20;99.90;;;;;;7395784;19;20022;-74
2022/05/27 12:45:47;;;;;;;12.05;2.10;;;14.10;99.90;;;;;;7395917;19;20017;-73
2022/05/27 12:48:28;;;;;;;10.15;2.88;;;14.20;99.90;;;;;;7394183;19;20011;-73
2022/05/27 12:50:58;;;;;;;13.07;2.90;;;14.20;99.00;;;;;;7394541;19;20022;-74
2022/05/27 12:53:45;;;;;;;11.52;2.45;;;14.10;99.90;;;;;;7389954;19;20532;-74
2022/05/27 13:03:05;;;;;;;11.77;2.50;;;14.10;99.90;;;;;;7395273;19;20014;-74
2022/05/27 13:06:07;;;;;;;10.95;2.92;;;14.40;99.90;;;;;;7392375;19;20014;-74
2022/05/27 13:08:37;;;;;;;11.02;2.80;;;14.20;99.90;;;;;;7395279;19;20027;-74
2022/05/27 13:11:06;;;;;;;13.25;3.00;;;14.00;99.90;;;;;;7395944;19;20045;-73
2022/05/27 13:13:37;;;;;;;12.02;2.67;;;14.10;99.90;;;;;;7392004;19;20017;-74
2022/05/27 13:16:12;;;;;;;11.85;2.30;;;14.30;99.90;;;;;;7390564;19;20507;-74
2022/05/27 13:18:55;;;;;;;10.73;2.40;;;14.50;99.60;;;;;;7392642;19;20018;-74
2022/05/27 13:21:39;;;;;;;10.07;2.53;;;14.30;98.60;;;;;;7391652;19;20081;-74
2022/05/27 13:24:41;;;;;;;16.90;2.92;;;14.10;99.80;;;;;;7387093;19;20010;-73
2022/05/27 13:27:26;;;;;;;11.27;2.60;;;13.90;99.30;;;;;;7388793;19;20022;-73
2022/05/27 13:30:03;;;;;;;11.52;2.60;;;13.60;99.00;;;;;;7390680;19;20042;-72
2022/05/27 13:32:34;;;;;;;14.98;2.67;;;13.30;99.90;;;;;;7389805;19;20022;-73
2022/05/27 13:35:12;;;;;;;13.82;2.58;;;13.50;99.90;;;;;;7390215;19;20015;-73
2022/05/27 13:37:53;;;;;;;14.52;2.97;;;13.60;99.90;;;;;;7394140;19;20014;-73
2022/05/27 13:40:27;;;;;;;11.68;2.33;;;13.60;99.90;;;;;;7391995;19;20388;-72
2022/05/27 13:43:01;;;;;;;8.73;2.58;;;13.70;99.90;;;;;;7387204;19;20029;-73
2022/05/27 13:45:33;;;;;;;14.77;2.72;;;13.70;99.90;;;;;;7395195;19;20471;-73
2022/05/27 13:48:08;;;;;;;15.95;3.25;;;13.60;99.90;;;;;;7391234;19;20011;-73
2022/05/27 13:50:43;;;;;;;11.38;3.10;;;13.60;99.90;;;;;;7393671;19;20029;-72
2022/05/27 13:53:24;;;;;;;15.67;3.20;;;13.30;99.90;;;;;;7391069;19;20022;-73
2022/05/27 13:55:56;;;;;;;12.55;2.40;;;13.40;99.90;;;;;;7392604;19;20044;-73
2022/05/27 13:58:26;;;;;;;11.25;3.03;;;13.30;99.90;;;;;;7391937;19;20042;-73
2022/05/27 14:01:01;;;;;;;13.07;2.88;;;13.30;99.90;;;;;;7390761;19;20007;-73